Time;durP1;ratioP1;P1;durP2;ratioP2;P2;SDS_P1;SDS_P2;PMS_P1;PMS_P2;Temp;Humidity;BMP_temperature;BMP_pressure;BME280_temperature;BME280_humidity;BME280_pressure;Samples;Min_cycle;Max_cycle;Signal;HPM_P1;HPM_P2
2022/07/19 00:01:35;;;;;;;7.13;3.97;;;21.30;99.90;;;;;;5157217;27;20038;-81
2022/07/19 00:04:02;;;;;;;7.77;4.07;;;21.80;99.90;;;;;;5138782;27;20044;-82
2022/07/19 00:06:27;;;;;;;7.22;3.50;;;21.30;99.90;;;;;;5157128;27;20372;-81
2022/07/19 00:08:53;;;;;;;9.07;3.80;;;21.20;99.90;;;;;;5157093;27;20102;-82
2022/07/19 00:11:19;;;;;;;6.60;3.37;;;21.40;99.90;;;;;;5138336;27;20046;-81
2022/07/19 00:13:44;;;;;;;7.50;4.00;;;21.20;99.90;;;;;;5156931;27;20092;-81
2022/07/19 00:16:10;;;;;;;5.77;3.77;;;21.20;99.90;;;;;;5157262;27;20389;-82
2022/07/19 00:18:35;;;;;;;6.60;3.40;;;21.20;99.90;;;;;;5138828;27;20049;-82
2022/07/19 00:21:01;;;;;;;6.33;3.83;;;21.30;99.90;;;;;;5157128;27;20046;-81
2022/07/19 00:23:27;;;;;;;9.40;4.07;;;21.10;99.90;;;;;;5156752;27;20121;-81
2022/07/19 00:25:52;;;;;;;4.70;3.70;;;21.00;99.90;;;;;;5137761;27;20091;-81
2022/07/19 00:28:18;;;;;;;6.90;4.00;;;21.00;99.90;;;;;;5156723;27;20038;-81
2022/07/19 00:30:44;;;;;;;8.73;3.90;;;21.00;99.90;;;;;;5138342;27;20038;-81
2022/07/19 00:33:10;;;;;;;9.90;3.67;;;21.30;99.90;;;;;;5156549;27;20039;-81
2022/07/19 00:35:39;;;;;;;7.17;3.87;;;20.80;99.90;;;;;;5138322;27;20031;-81
2022/07/19 00:38:06;;;;;;;8.73;4.15;;;20.80;99.90;;;;;;5137778;27;20359;-81
2022/07/19 00:40:31;;;;;;;6.07;3.90;;;20.70;99.90;;;;;;5156340;27;20502;-81
2022/07/19 00:42:57;;;;;;;6.65;3.38;;;20.80;99.90;;;;;;5137588;27;20086;-82
2022/07/19 00:45:23;;;;;;;7.90;3.53;;;20.90;99.90;;;;;;5155942;27;20054;-81
2022/07/19 00:47:49;;;;;;;7.20;3.70;;;20.70;99.90;;;;;;5156245;27;20043;-82
2022/07/19 00:50:14;;;;;;;4.90;3.47;;;20.70;99.90;;;;;;5137803;27;20046;-81
2022/07/19 00:52:42;;;;;;;5.90;3.53;;;20.70;99.90;;;;;;5156138;27;20276;-81
2022/07/19 00:55:09;;;;;;;7.88;3.80;;;20.70;99.90;;;;;;5156094;27;20047;-81
2022/07/19 00:57:40;;;;;;;7.60;3.58;;;20.70;99.90;;;;;;5137622;27;20173;-81
2022/07/19 01:00:08;;;;;;;7.55;3.70;;;20.70;99.90;;;;;;5137523;27;20058;-81
2022/07/19 01:02:35;;;;;;;6.40;3.70;;;20.60;99.90;;;;;;5155985;27;20125;-81
2022/07/19 01:05:00;;;;;;;6.10;3.70;;;20.70;99.90;;;;;;5155972;27;20432;-81
2022/07/19 01:07:26;;;;;;;5.97;3.87;;;20.60;99.90;;;;;;5155933;27;20038;-81
2022/07/19 01:09:52;;;;;;;5.80;3.88;;;20.50;99.90;;;;;;5137426;27;20091;-81
2022/07/19 01:12:20;;;;;;;8.40;3.80;;;20.30;99.90;;;;;;5156292;27;20050;-81
2022/07/19 01:14:46;;;;;;;5.88;3.40;;;20.70;99.90;;;;;;5137103;27;20049;-81
2022/07/19 01:17:11;;;;;;;5.93;3.40;;;20.40;99.90;;;;;;5137731;27;20042;-82
2022/07/19 01:19:37;;;;;;;7.23;3.53;;;20.40;99.90;;;;;;5155738;27;20390;-81
2022/07/19 01:22:02;;;;;;;8.00;3.70;;;20.40;99.90;;;;;;5137605;27;20039;-81
2022/07/19 01:24:28;;;;;;;6.53;3.70;;;20.30;99.90;;;;;;5137262;27;20137;-82
2022/07/19 01:26:54;;;;;;;5.37;3.53;;;20.30;99.90;;;;;;5155733;27;20039;-82
2022/07/19 01:29:20;;;;;;;7.53;3.70;;;20.50;99.90;;;;;;5155591;27;20406;-81
2022/07/19 01:31:45;;;;;;;6.07;4.10;;;20.20;99.90;;;;;;5137147;27;20039;-81
2022/07/19 01:34:11;;;;;;;6.47;3.80;;;20.20;99.90;;;;;;5120139;27;20142;-82
2022/07/19 01:36:37;;;;;;;7.57;3.80;;;20.10;99.90;;;;;;5155493;27;20085;-82
2022/07/19 01:39:02;;;;;;;5.50;3.60;;;20.60;99.90;;;;;;5154724;27;20450;-82
2022/07/19 01:41:28;;;;;;;4.77;3.60;;;20.60;99.90;;;;;;5155478;27;20062;-82
2022/07/19 01:43:54;;;;;;;7.37;4.40;;;20.30;99.90;;;;;;5155388;27;20041;-82
2022/07/19 01:46:19;;;;;;;9.60;4.10;;;20.10;99.90;;;;;;5137340;27;20042;-82
2022/07/19 01:48:45;;;;;;;5.87;3.90;;;20.20;99.90;;;;;;5155636;27;20042;-82
2022/07/19 01:51:10;;;;;;;9.50;4.43;;;20.00;99.90;;;;;;5137244;27;20077;-82
2022/07/19 01:53:36;;;;;;;7.33;4.03;;;20.10;99.90;;;;;;5155326;27;20078;-81
2022/07/19 01:56:06;;;;;;;7.93;4.17;;;19.40;99.90;;;;;;5155195;27;20089;-81
2022/07/19 01:58:32;;;;;;;8.27;4.60;;;21.00;99.90;;;;;;5154929;27;20483;-81
2022/07/19 02:00:57;;;;;;;7.13;3.60;;;19.80;99.90;;;;;;5155278;27;20045;-82
2022/07/19 02:03:23;;;;;;;6.90;4.17;;;19.80;99.90;;;;;;5155267;27;20375;-82
2022/07/19 02:05:49;;;;;;;6.43;3.70;;;20.10;99.90;;;;;;5154939;27;20038;-82
2022/07/19 02:08:14;;;;;;;6.07;3.67;;;20.10;99.90;;;;;;5155053;27;20050;-82
2022/07/19 02:10:40;;;;;;;8.80;3.80;;;19.70;99.90;;;;;;5154991;27;20074;-82
2022/07/19 02:13:06;;;;;;;9.77;4.13;;;20.00;99.90;;;;;;5136947;27;20191;-82
2022/07/19 02:15:31;;;;;;;5.47;3.70;;;19.60;99.90;;;;;;5155006;27;20498;-82
2022/07/19 02:17:57;;;;;;;6.27;3.60;;;20.30;99.90;;;;;;5155106;27;20130;-82
2022/07/19 02:20:23;;;;;;;9.83;3.90;;;19.40;99.90;;;;;;5136868;27;20035;-82
2022/07/19 02:22:48;;;;;;;7.63;4.00;;;20.00;99.90;;;;;;5155062;27;20039;-82
2022/07/19 02:25:14;;;;;;;7.93;4.17;;;18.70;99.90;;;;;;5155006;27;20306;-82
2022/07/19 02:27:41;;;;;;;7.63;4.07;;;19.00;99.90;;;;;;5154934;27;20074;-81
2022/07/19 02:30:06;;;;;;;;;;;20.40;99.90;;;;;;5137240;27;20443;-82
2022/07/19 02:32:32;;;;;;;7.57;4.32;;;19.50;99.90;;;;;;5154785;27;20009;-82
2022/07/19 02:34:57;;;;;;;7.30;4.20;;;19.40;99.90;;;;;;5154903;27;20164;-82
2022/07/19 02:37:24;;;;;;;6.93;4.40;;;19.50;99.90;;;;;;5154772;27;20088;-82
2022/07/19 02:39:49;;;;;;;6.13;3.80;;;19.40;99.90;;;;;;5154968;27;20125;-81
2022/07/19 02:42:15;;;;;;;7.57;4.33;;;19.40;99.90;;;;;;5136370;27;20595;-81
2022/07/19 02:44:40;;;;;;;7.03;4.23;;;19.40;99.90;;;;;;5154874;27;20042;-81
2022/07/19 02:47:06;;;;;;;8.40;4.63;;;19.30;99.90;;;;;;5119631;27;20141;-81
2022/07/19 02:49:32;;;;;;;6.33;4.70;;;19.30;99.90;;;;;;5137941;27;20042;-81
2022/07/19 02:51:57;;;;;;;7.93;4.50;;;19.30;99.90;;;;;;5123103;27;20042;-81
2022/07/19 02:54:23;;;;;;;6.60;4.27;;;19.40;99.90;;;;;;5158637;27;20042;-81
2022/07/19 02:56:49;;;;;;;8.20;4.40;;;19.30;99.90;;;;;;5140018;27;20428;-81
2022/07/19 02:59:14;;;;;;;6.90;5.03;;;19.20;99.90;;;;;;5158480;27;20039;-82
2022/07/19 03:01:40;;;;;;;9.57;4.40;;;19.20;99.90;;;;;;5140821;27;20091;-82
2022/07/19 03:04:05;;;;;;;9.00;4.37;;;19.10;99.90;;;;;;5158371;27;20038;-81
2022/07/19 03:06:31;;;;;;;6.93;4.83;;;19.20;99.90;;;;;;5140218;27;20123;-82
2022/07/19 03:08:56;;;;;;;7.10;5.03;;;19.20;99.90;;;;;;5140314;27;20050;-82
2022/07/19 03:11:22;;;;;;;7.63;5.00;;;19.00;99.90;;;;;;5158096;27;20047;-82
2022/07/19 03:13:48;;;;;;;7.40;4.60;;;19.10;99.90;;;;;;5158155;27;20045;-81
2022/07/19 03:16:13;;;;;;;8.10;4.80;;;19.00;99.90;;;;;;5139602;27;20038;-82
2022/07/19 03:18:39;;;;;;;8.13;4.83;;;18.90;99.90;;;;;;5139709;27;20471;-81
2022/07/19 03:21:05;;;;;;;8.87;4.80;;;18.90;99.90;;;;;;5158002;27;20483;-81
2022/07/19 03:23:32;;;;;;;9.53;4.60;;;18.90;99.90;;;;;;5158027;27;20039;-81
2022/07/19 03:25:58;;;;;;;8.95;4.38;;;18.90;99.90;;;;;;5139658;27;20043;-81
2022/07/19 03:28:23;;;;;;;8.23;4.80;;;18.80;99.90;;;;;;5157731;27;20038;-81
2022/07/19 03:30:49;;;;;;;8.80;4.70;;;18.70;99.90;;;;;;5157893;27;20042;-81
2022/07/19 03:33:15;;;;;;;8.20;4.83;;;18.90;99.90;;;;;;5157848;27;20043;-81
2022/07/19 03:35:45;;;;;;;7.15;4.68;;;18.80;99.90;;;;;;5157619;27;20506;-81
2022/07/19 03:38:12;;;;;;;8.32;4.45;;;18.80;99.90;;;;;;5157637;27;20530;-81
2022/07/19 03:40:39;;;;;;;8.40;5.07;;;18.90;99.90;;;;;;5157720;27;20359;-81
2022/07/19 03:43:05;;;;;;;7.25;4.90;;;18.80;99.90;;;;;;5139384;27;20053;-81
2022/07/19 03:45:31;;;;;;;7.07;4.68;;;18.80;99.90;;;;;;5157570;27;20047;-81
2022/07/19 03:47:56;;;;;;;7.00;4.60;;;18.70;99.90;;;;;;5139446;27;20045;-82
2022/07/19 03:50:22;;;;;;;7.63;4.93;;;18.70;99.90;;;;;;5122228;27;20085;-81
2022/07/19 03:52:47;;;;;;;7.63;4.90;;;18.80;99.90;;;;;;5139340;27;20125;-81
2022/07/19 03:55:13;;;;;;;8.10;4.60;;;19.00;99.90;;;;;;5157421;27;20039;-81
2022/07/19 03:57:39;;;;;;;9.60;5.27;;;18.70;99.90;;;;;;5157211;27;20083;-81
2022/07/19 04:00:06;;;;;;;8.90;4.87;;;18.70;99.90;;;;;;5157771;27;20163;-81
2022/07/19 04:02:31;;;;;;;8.55;5.43;;;18.70;99.90;;;;;;5138095;27;20046;-82
2022/07/19 04:04:57;;;;;;;7.57;5.63;;;18.70;99.90;;;;;;5138809;27;20043;-82
2022/07/19 04:07:23;;;;;;;8.63;5.00;;;18.70;99.90;;;;;;5157436;27;20074;-82
2022/07/19 04:09:48;;;;;;;7.67;5.30;;;18.70;99.90;;;;;;5139003;27;20054;-82
2022/07/19 04:12:14;;;;;;;8.50;5.47;;;18.70;99.90;;;;;;5156929;27;20050;-82
2022/07/19 04:14:39;;;;;;;8.03;5.27;;;18.70;99.90;;;;;;5139395;27;20125;-82
2022/07/19 04:17:05;;;;;;;7.83;5.27;;;18.70;99.90;;;;;;5156921;27;20043;-82
2022/07/19 04:19:31;;;;;;;7.13;5.00;;;18.70;99.90;;;;;;5138754;27;20099;-81
2022/07/19 04:21:57;;;;;;;8.25;4.90;;;18.70;99.90;;;;;;5156994;27;20092;-82
2022/07/19 04:24:22;;;;;;;8.87;5.00;;;18.80;99.90;;;;;;5138500;27;20047;-81
2022/07/19 04:26:48;;;;;;;8.80;5.43;;;18.70;99.90;;;;;;5138346;27;20035;-86
2022/07/19 04:29:14;;;;;;;7.77;5.23;;;18.80;99.90;;;;;;5138163;27;20117;-85
2022/07/19 04:31:39;;;;;;;8.57;5.47;;;18.90;99.90;;;;;;5139167;27;20103;-84
2022/07/19 04:34:05;;;;;;;6.20;5.03;;;18.70;99.90;;;;;;5138439;27;20085;-86
2022/07/19 04:36:31;;;;;;;7.85;5.20;;;18.70;99.90;;;;;;5138033;27;20086;-85
2022/07/19 04:38:57;;;;;;;11.73;5.65;;;18.80;99.90;;;;;;5156520;27;20482;-85
2022/07/19 04:41:23;;;;;;;10.63;5.43;;;18.80;99.90;;;;;;5138223;27;20043;-87
2022/07/19 04:43:48;;;;;;;8.53;4.93;;;18.80;99.90;;;;;;5138436;27;20051;-86
2022/07/19 04:46:14;;;;;;;7.80;5.70;;;18.80;99.90;;;;;;5121096;27;20497;-85
2022/07/19 04:48:40;;;;;;;8.67;5.43;;;18.90;99.90;;;;;;5137947;27;20394;-82
2022/07/19 04:51:06;;;;;;;8.52;5.40;;;18.90;99.90;;;;;;5156121;27;20546;-85
2022/07/19 04:53:32;;;;;;;12.03;5.13;;;18.90;99.90;;;;;;5137948;27;20078;-87
2022/07/19 04:55:58;;;;;;;9.70;5.47;;;19.00;99.90;;;;;;5120518;27;20401;-85
2022/07/19 04:58:23;;;;;;;8.50;5.93;;;19.10;99.90;;;;;;5137624;27;20160;-86
2022/07/19 05:00:49;;;;;;;11.80;5.80;;;19.10;99.90;;;;;;5120724;27;20054;-83
2022/07/19 05:03:14;;;;;;;11.10;5.47;;;19.10;99.90;;;;;;5120753;27;20129;-85
2022/07/19 05:05:40;;;;;;;11.73;5.50;;;19.10;99.90;;;;;;5155949;27;20074;-85
2022/07/19 05:08:06;;;;;;;12.87;5.83;;;19.60;99.90;;;;;;5120576;27;20054;-86
2022/07/19 05:10:31;;;;;;;12.60;6.03;;;19.20;99.90;;;;;;5155631;27;20046;-86
2022/07/19 05:12:58;;;;;;;13.07;6.03;;;19.40;99.90;;;;;;5120454;27;20069;-85
2022/07/19 05:15:23;;;;;;;11.30;5.65;;;19.40;99.90;;;;;;5137607;27;20039;-86
2022/07/19 05:17:49;;;;;;;12.07;5.10;;;19.60;99.90;;;;;;5120362;27;20142;-83
2022/07/19 05:20:16;;;;;;;10.70;5.70;;;19.50;99.90;;;;;;5120387;27;20562;-86
2022/07/19 05:22:42;;;;;;;;;;;19.70;99.90;;;;;;5137718;27;20394;-90
2022/07/19 05:25:09;;;;;;;8.25;4.75;;;19.60;99.90;;;;;;5120489;27;19919;-87
2022/07/19 05:27:35;;;;;;;9.00;5.07;;;19.70;99.90;;;;;;5120214;27;20049;-87
2022/07/19 05:30:01;;;;;;;13.73;5.80;;;19.80;99.90;;;;;;5137643;27;20055;-86
2022/07/19 05:32:27;;;;;;;11.98;5.45;;;19.90;99.90;;;;;;5137357;27;20537;-85
2022/07/19 05:34:52;;;;;;;7.07;4.83;;;20.00;99.90;;;;;;5155597;27;20175;-82
2022/07/19 05:37:18;;;;;;;9.10;5.20;;;20.30;99.90;;;;;;5137130;27;20065;-83
2022/07/19 05:39:43;;;;;;;9.57;5.10;;;20.40;99.90;;;;;;5119989;27;20051;-84
2022/07/19 05:42:09;;;;;;;6.77;4.73;;;20.60;99.90;;;;;;5136949;27;20043;-79
2022/07/19 05:44:35;;;;;;;15.73;5.60;;;20.80;99.90;;;;;;5155959;27;20504;-85
2022/07/19 05:47:01;;;;;;;8.98;4.90;;;20.90;99.90;;;;;;5120500;27;20054;-90
2022/07/19 05:49:27;;;;;;;8.80;4.23;;;21.20;99.90;;;;;;5120394;27;20046;-89
2022/07/19 05:51:53;;;;;;;12.30;5.20;;;21.30;99.90;;;;;;5137022;27;20035;-91
2022/07/19 05:54:18;;;;;;;12.52;5.15;;;21.40;99.90;;;;;;5136967;27;20122;-89
2022/07/19 05:56:44;;;;;;;9.00;5.33;;;21.60;99.90;;;;;;5119588;27;20162;-89
2022/07/19 05:59:10;;;;;;;7.70;5.07;;;21.80;99.90;;;;;;5120561;27;20053;-90
2022/07/19 06:01:36;;;;;;;7.17;5.03;;;22.00;99.90;;;;;;5120618;27;20478;-91
2022/07/19 06:04:01;;;;;;;6.77;4.80;;;22.50;99.90;;;;;;5119949;27;20489;-90
2022/07/19 06:06:30;;;;;;;7.23;5.03;;;22.40;99.90;;;;;;5138037;27;20082;-91
2022/07/19 06:08:56;;;;;;;9.82;4.88;;;22.50;99.40;;;;;;5120273;27;20047;-86
2022/07/19 06:11:22;;;;;;;15.17;4.80;;;22.80;99.40;;;;;;5136759;27;20057;-87
2022/07/19 06:13:49;;;;;;;10.88;4.68;;;22.80;99.50;;;;;;5155235;27;20046;-86
2022/07/19 06:16:15;;;;;;;9.45;4.40;;;23.10;99.60;;;;;;5154973;27;20047;-89
2022/07/19 06:18:42;;;;;;;8.27;4.88;;;23.30;98.80;;;;;;5118983;27;20122;-87
2022/07/19 06:21:10;;;;;;;9.40;4.55;;;23.40;98.70;;;;;;5119324;27;20473;-83
2022/07/19 06:23:37;;;;;;;9.88;4.97;;;23.60;98.30;;;;;;5155291;27;20054;-81
2022/07/19 06:26:03;;;;;;;9.95;4.57;;;23.80;98.40;;;;;;5140679;27;20485;-84
2022/07/19 06:28:29;;;;;;;;;;;23.90;97.50;;;;;;5160448;27;20039;-82
2022/07/19 06:30:55;;;;;;;6.97;4.05;;;24.00;96.90;;;;;;5141170;27;20407;-82
2022/07/19 06:33:20;;;;;;;10.87;3.73;;;24.10;97.30;;;;;;5141837;27;20066;-81
2022/07/19 06:35:46;;;;;;;8.30;4.20;;;24.20;96.70;;;;;;5141656;27;20067;-82
2022/07/19 06:38:12;;;;;;;10.05;3.90;;;24.30;96.80;;;;;;5158973;27;20046;-83
2022/07/19 06:40:38;;;;;;;8.52;3.95;;;24.30;96.30;;;;;;5139759;27;20047;-80
2022/07/19 06:43:04;;;;;;;6.78;3.47;;;24.40;96.50;;;;;;5140554;27;20421;-83
2022/07/19 06:45:30;;;;;;;6.80;3.35;;;24.50;96.30;;;;;;5141047;27;20053;-84
2022/07/19 06:47:55;;;;;;;6.17;3.20;;;24.60;96.30;;;;;;5140475;27;20498;-81
2022/07/19 06:50:21;;;;;;;5.77;3.70;;;24.70;96.40;;;;;;5140452;27;20051;-82
2022/07/19 06:52:47;;;;;;;6.67;3.60;;;24.80;96.40;;;;;;5123198;27;20053;-83
2022/07/19 06:55:13;;;;;;;8.37;3.93;;;24.90;96.00;;;;;;5158463;27;20039;-81
2022/07/19 06:57:39;;;;;;;11.05;3.85;;;24.90;95.70;;;;;;5158548;27;20039;-82
2022/07/19 07:00:07;;;;;;;13.30;3.78;;;25.00;95.40;;;;;;5140008;27;20096;-80
2022/07/19 07:02:33;;;;;;;6.38;3.58;;;25.10;95.40;;;;;;5140314;27;20049;-82
2022/07/19 07:04:59;;;;;;;7.60;3.42;;;25.20;95.10;;;;;;5158557;27;20530;-76
2022/07/19 07:07:24;;;;;;;9.33;3.43;;;25.30;94.90;;;;;;5158300;27;20118;-79
2022/07/19 07:09:50;;;;;;;5.20;3.30;;;25.40;94.70;;;;;;5158188;27;20390;-80
2022/07/19 07:12:15;;;;;;;8.33;3.80;;;25.50;94.60;;;;;;5158348;27;20138;-82
2022/07/19 07:14:41;;;;;;;8.73;3.80;;;25.60;94.20;;;;;;5158079;27;20046;-80
2022/07/19 07:17:07;;;;;;;8.30;3.40;;;25.70;94.20;;;;;;5158045;27;20042;-80
2022/07/19 07:19:32;;;;;;;5.23;3.70;;;25.80;94.80;;;;;;5158021;27;20074;-81
2022/07/19 07:22:00;;;;;;;6.60;3.60;;;25.90;94.50;;;;;;5158099;27;20902;-81
2022/07/19 07:24:26;;;;;;;9.40;3.67;;;26.10;95.00;;;;;;5157937;27;20096;-80
2022/07/19 07:26:52;;;;;;;8.70;3.83;;;26.20;94.70;;;;;;5157936;27;20045;-83
2022/07/19 07:29:17;;;;;;;7.83;3.50;;;26.30;94.40;;;;;;5122539;27;20482;-82
2022/07/19 07:31:43;;;;;;;4.93;3.20;;;26.40;94.10;;;;;;5158008;27;20042;-82
2022/07/19 07:34:09;;;;;;;8.47;3.80;;;26.40;94.00;;;;;;5157954;27;20088;-86
2022/07/19 07:36:35;;;;;;;8.82;3.40;;;26.50;93.70;;;;;;5120649;27;20039;-83
2022/07/19 07:39:00;;;;;;;10.87;3.53;;;26.70;93.80;;;;;;5139468;27;20550;-85
2022/07/19 07:41:26;;;;;;;6.93;3.30;;;26.80;93.60;;;;;;5139188;27;20632;-82
2022/07/19 07:43:51;;;;;;;10.53;3.43;;;26.90;93.40;;;;;;5157587;27;20046;-85
2022/07/19 07:46:17;;;;;;;8.67;3.53;;;27.00;93.40;;;;;;5139457;27;20038;-79
2022/07/19 07:48:43;;;;;;;8.60;3.30;;;27.10;92.70;;;;;;5139535;27;20066;-82
2022/07/19 07:51:08;;;;;;;6.23;3.10;;;27.20;92.30;;;;;;5139233;27;20030;-80
2022/07/19 07:53:34;;;;;;;7.53;3.43;;;27.30;92.40;;;;;;5157287;27;20428;-82
2022/07/19 07:55:59;;;;;;;4.63;3.13;;;27.40;92.60;;;;;;5157188;27;20049;-84
2022/07/19 07:58:25;;;;;;;8.93;3.57;;;27.50;91.90;;;;;;5157280;27;20038;-81
2022/07/19 08:00:50;;;;;;;6.70;3.60;;;27.60;91.80;;;;;;5156951;27;20047;-83
2022/07/19 08:03:17;;;;;;;5.37;3.43;;;27.70;92.00;;;;;;5157314;27;20045;-82
2022/07/19 08:05:47;;;;;;;9.20;3.67;;;27.80;91.50;;;;;;5157109;27;20042;-84
2022/07/19 08:08:13;;;;;;;8.77;3.25;;;27.90;91.40;;;;;;5157462;27;20122;-84
2022/07/19 08:10:39;;;;;;;8.13;3.42;;;28.10;91.00;;;;;;5157057;27;20542;-83
2022/07/19 08:13:05;;;;;;;11.73;3.10;;;28.20;91.40;;;;;;5121954;27;20125;-82
2022/07/19 08:15:30;;;;;;;7.28;3.00;;;28.30;91.30;;;;;;5156493;27;20417;-83
2022/07/19 08:17:56;;;;;;;6.00;3.00;;;28.50;91.10;;;;;;5121701;27;20043;-82
2022/07/19 08:20:22;;;;;;;6.35;3.35;;;28.60;91.20;;;;;;5156771;27;20309;-85
2022/07/19 08:22:48;;;;;;;6.03;2.93;;;28.80;91.20;;;;;;5156919;27;20042;-83
2022/07/19 08:25:16;;;;;;;7.70;3.27;;;29.00;90.70;;;;;;5156763;27;20272;-83
2022/07/19 08:27:45;;;;;;;7.25;2.75;;;29.00;90.20;;;;;;5138712;27;20034;-83
2022/07/19 08:30:11;;;;;;;5.90;2.95;;;29.20;90.20;;;;;;5156592;27;20038;-81
2022/07/19 08:32:38;;;;;;;9.48;2.92;;;29.30;89.80;;;;;;5121310;27;20398;-81
2022/07/19 08:35:05;;;;;;;6.32;3.08;;;29.40;89.50;;;;;;5156523;27;20050;-82
2022/07/19 08:37:30;;;;;;;6.38;3.13;;;29.50;89.80;;;;;;5156553;27;20046;-81
2022/07/19 08:39:56;;;;;;;6.07;3.00;;;29.60;90.10;;;;;;5156034;27;20047;-82
2022/07/19 08:42:21;;;;;;;7.50;3.30;;;29.70;89.40;;;;;;5138506;27;20277;-82
2022/07/19 08:44:52;;;;;;;6.28;2.85;;;29.80;88.90;;;;;;5156423;27;20494;-85
2022/07/19 08:47:19;;;;;;;7.30;3.42;;;29.90;88.70;;;;;;5155941;27;20049;-85
2022/07/19 08:49:45;;;;;;;9.82;3.40;;;30.00;88.10;;;;;;5138065;27;20459;-83
2022/07/19 08:52:11;;;;;;;7.50;3.17;;;30.10;88.90;;;;;;5156254;27;20125;-84
2022/07/19 08:54:38;;;;;;;8.40;3.78;;;30.20;89.40;;;;;;5137282;27;20478;-84
2022/07/19 08:59:48;;;;;;;8.40;3.63;;;30.50;88.50;;;;;;5140495;27;20444;-83
2022/07/19 09:02:13;;;;;;;6.10;3.60;;;30.60;89.30;;;;;;5137628;27;20042;-84
2022/07/19 09:04:39;;;;;;;11.45;3.13;;;30.60;89.30;;;;;;5137708;27;20129;-82
2022/07/19 09:07:05;;;;;;;7.28;2.78;;;30.70;88.30;;;;;;5155827;27;20047;-84
2022/07/19 09:09:35;;;;;;;8.40;2.70;;;30.80;87.60;;;;;;5155867;27;20459;-85
2022/07/19 09:12:01;;;;;;;4.20;2.40;;;31.00;87.90;;;;;;5155809;27;20334;-85
2022/07/19 09:14:35;;;;;;;7.13;2.38;;;31.00;87.30;;;;;;5120437;27;20064;-84
2022/07/19 09:17:16;;;;;;;7.70;2.40;;;31.10;87.30;;;;;;5151165;27;20042;-84
2022/07/19 09:19:44;;;;;;;6.63;2.20;;;31.20;87.30;;;;;;5127816;27;20050;-84
2022/07/19 09:22:18;;;;;;;7.45;2.50;;;31.30;87.10;;;;;;5116933;27;20039;-84
2022/07/19 09:24:49;;;;;;;6.63;2.60;;;31.40;86.60;;;;;;5134684;27;20050;-85
2022/07/19 09:27:17;;;;;;;5.22;2.38;;;31.50;86.20;;;;;;5116648;27;20058;-83
2022/07/19 09:29:51;;;;;;;8.35;2.30;;;31.60;85.70;;;;;;5082582;27;20051;-80
2022/07/19 09:32:19;;;;;;;5.90;2.03;;;31.60;85.70;;;;;;5116613;28;20050;-82
2022/07/19 09:34:56;;;;;;;4.70;2.45;;;31.70;85.40;;;;;;5116239;28;20065;-81
2022/07/19 09:37:30;;;;;;;7.82;2.40;;;31.70;84.20;;;;;;5134668;27;20046;-81
2022/07/19 09:40:01;;;;;;;5.53;2.30;;;31.80;83.90;;;;;;5116397;28;20043;-82
2022/07/19 09:42:44;;;;;;;7.00;2.50;;;31.90;83.40;;;;;;5115828;28;20054;-84
2022/07/19 09:45:14;;;;;;;7.35;2.97;;;32.00;84.00;;;;;;5116295;28;20130;-81
2022/07/19 09:47:42;;;;;;;8.05;2.50;;;32.10;84.30;;;;;;5134508;27;20035;-84
2022/07/19 09:50:10;;;;;;;6.45;2.33;;;32.20;83.30;;;;;;5099056;28;20039;-82
2022/07/19 09:52:38;;;;;;;6.45;2.70;;;32.30;82.50;;;;;;5116486;28;20047;-83
2022/07/19 09:55:06;;;;;;;13.27;2.97;;;32.40;82.30;;;;;;5116150;28;20413;-83
2022/07/19 09:57:40;;;;;;;9.25;2.70;;;32.50;82.20;;;;;;5115548;28;20534;-83
2022/07/19 10:00:08;;;;;;;7.45;2.40;;;32.60;81.90;;;;;;5118723;27;20055;-82
2022/07/19 10:02:38;;;;;;;5.68;2.28;;;32.60;80.40;;;;;;5120343;27;20090;-84
2022/07/19 10:05:09;;;;;;;6.25;2.42;;;32.70;80.00;;;;;;5120525;27;20086;-83
2022/07/19 10:07:36;;;;;;;5.80;2.40;;;32.80;80.50;;;;;;5103505;27;20405;-83
2022/07/19 10:10:06;;;;;;;6.22;2.25;;;32.90;79.60;;;;;;5138920;27;20043;-82
2022/07/19 10:12:33;;;;;;;6.60;2.50;;;33.00;78.00;;;;;;5119647;27;20086;-83
2022/07/19 10:14:59;;;;;;;6.30;2.10;;;33.10;77.90;;;;;;5120070;27;20047;-85
2022/07/19 10:17:34;;;;;;;6.85;2.20;;;33.10;77.00;;;;;;5086007;27;20043;-83
2022/07/19 10:20:01;;;;;;;4.78;1.80;;;33.20;77.80;;;;;;5138028;27;20447;-83
2022/07/19 10:22:27;;;;;;;7.57;1.90;;;33.30;74.30;;;;;;5138204;27;20054;-83
2022/07/19 10:24:54;;;;;;;;;;;33.40;75.20;;;;;;5103544;27;20125;-86
2022/07/19 10:27:25;;;;;;;8.30;2.17;;;33.60;76.30;;;;;;5119674;27;20263;-85
2022/07/19 10:30:12;;;;;;;6.78;1.80;;;33.70;74.50;;;;;;5119996;27;20043;-85
2022/07/19 10:32:46;;;;;;;5.47;1.90;;;33.70;74.00;;;;;;5119691;27;20043;-86
2022/07/19 10:35:18;;;;;;;3.92;1.90;;;33.90;74.70;;;;;;5119684;27;20547;-85
2022/07/19 10:37:46;;;;;;;5.63;2.15;;;34.00;72.90;;;;;;5120191;27;20039;-87
2022/07/19 10:40:11;;;;;;;6.05;2.15;;;34.10;73.20;;;;;;5102943;27;20086;-86
2022/07/19 10:43:08;;;;;;;4.03;1.77;;;34.10;72.70;;;;;;5119856;27;20120;-86
2022/07/19 10:45:34;;;;;;;5.28;1.92;;;34.20;72.10;;;;;;5138757;27;20095;-84
2022/07/19 10:48:01;;;;;;;7.80;1.80;;;34.30;72.00;;;;;;5119458;27;20517;-81
2022/07/19 10:50:41;;;;;;;5.75;1.80;;;34.30;72.20;;;;;;5119624;27;20050;-81
2022/07/19 10:53:07;;;;;;;5.82;1.80;;;34.30;71.80;;;;;;5120008;27;20043;-86
2022/07/19 10:55:34;;;;;;;4.38;1.67;;;34.30;72.00;;;;;;5119191;27;20471;-83
2022/07/19 10:58:06;;;;;;;4.45;1.95;;;34.40;71.90;;;;;;5156061;27;20047;-80
2022/07/19 11:00:40;;;;;;;4.97;1.70;;;34.50;71.80;;;;;;5157911;27;20038;-87
2022/07/19 11:03:23;;;;;;;5.05;1.58;;;34.60;71.30;;;;;;5139232;27;20131;-87
2022/07/19 11:05:52;;;;;;;4.97;1.80;;;34.80;71.40;;;;;;5139920;27;20039;-87
2022/07/19 11:08:30;;;;;;;5.35;1.77;;;34.80;70.40;;;;;;5137751;27;20122;-84
2022/07/19 11:11:11;;;;;;;5.10;1.70;;;34.80;70.20;;;;;;5157053;27;20498;-86
2022/07/19 11:13:38;;;;;;;4.63;1.83;;;34.90;68.30;;;;;;5139358;27;20383;-84
2022/07/19 11:16:04;;;;;;;4.05;1.90;;;34.90;69.30;;;;;;5139115;27;20039;-83
2022/07/19 11:18:30;;;;;;;;;;;34.90;68.20;;;;;;5139868;27;20054;-85
2022/07/19 11:20:58;;;;;;;4.15;1.70;;;35.00;68.70;;;;;;5157548;27;19919;-84
2022/07/19 11:23:27;;;;;;;4.38;1.50;;;35.00;69.00;;;;;;5157133;27;20098;-82
2022/07/19 11:26:11;;;;;;;6.78;1.77;;;35.10;68.50;;;;;;5144079;27;20044;-83
2022/07/19 11:28:39;;;;;;;7.30;1.55;;;35.10;68.70;;;;;;5156762;27;20039;-85
2022/07/19 11:31:22;;;;;;;5.20;1.75;;;35.30;69.50;;;;;;5157000;27;20046;-82
2022/07/19 11:33:52;;;;;;;7.80;1.65;;;35.40;68.10;;;;;;5122155;27;20435;-85
2022/07/19 11:36:19;;;;;;;5.40;1.83;;;35.50;67.50;;;;;;5157150;27;20043;-85
2022/07/19 11:38:58;;;;;;;11.07;2.25;;;35.50;67.70;;;;;;5156778;27;20398;-83
2022/07/19 11:41:27;;;;;;;3.22;1.50;;;35.60;67.50;;;;;;5138602;27;20452;-83
2022/07/19 11:44:04;;;;;;;3.80;1.70;;;35.60;65.80;;;;;;5156917;27;20034;-82
2022/07/19 11:46:39;;;;;;;2.28;1.35;;;35.70;66.70;;;;;;5138823;27;20050;-84
2022/07/19 11:49:08;;;;;;;5.38;1.40;;;35.80;66.50;;;;;;5157037;27;20088;-85
2022/07/19 11:51:34;;;;;;;7.13;1.55;;;35.80;65.80;;;;;;5156853;27;20087;-85
2022/07/19 11:54:01;;;;;;;5.90;1.50;;;35.90;65.90;;;;;;5118904;27;20046;-83
2022/07/19 11:56:32;;;;;;;3.45;1.35;;;35.90;66.40;;;;;;5136000;27;20050;-88
2022/07/19 11:59:01;;;;;;;5.10;1.52;;;36.00;65.80;;;;;;5101323;27;20053;-86
2022/07/19 12:01:32;;;;;;;6.68;1.65;;;36.00;64.80;;;;;;5100982;27;20058;-88
2022/07/19 12:04:03;;;;;;;5.50;1.50;;;36.00;64.40;;;;;;5117833;27;20043;-83
2022/07/19 12:06:39;;;;;;;3.83;1.42;;;36.00;64.40;;;;;;5117170;27;20051;-81
2022/07/19 12:09:06;;;;;;;2.70;1.40;;;36.10;63.20;;;;;;5117994;27;20074;-85
2022/07/19 12:11:43;;;;;;;6.18;1.70;;;36.10;64.00;;;;;;5100988;27;20055;-87
2022/07/19 12:14:20;;;;;;;9.68;1.60;;;36.20;61.80;;;;;;5116392;27;20402;-86
2022/07/19 12:16:46;;;;;;;4.55;1.25;;;36.20;62.20;;;;;;5099728;27;20070;-85
2022/07/19 12:19:14;;;;;;;4.35;1.38;;;36.30;62.90;;;;;;5117642;27;20035;-87
2022/07/19 12:21:41;;;;;;;5.13;1.40;;;36.40;62.40;;;;;;5135246;27;20046;-86
2022/07/19 12:24:12;;;;;;;5.80;1.23;;;36.40;63.40;;;;;;5100909;27;20042;-86
2022/07/19 12:26:40;;;;;;;5.32;1.40;;;36.40;62.80;;;;;;5117968;27;20054;-87
2022/07/19 12:29:23;;;;;;;5.70;1.45;;;36.50;63.30;;;;;;5101253;27;20159;-86
2022/07/19 12:31:51;;;;;;;5.15;1.42;;;36.60;60.00;;;;;;5117570;27;20043;-88
2022/07/19 12:34:18;;;;;;;3.65;1.33;;;36.60;61.70;;;;;;5101445;27;20047;-86
2022/07/19 12:36:44;;;;;;;6.07;1.30;;;36.50;61.30;;;;;;5135737;27;20479;-87
2022/07/19 12:39:26;;;;;;;4.88;1.40;;;36.60;61.50;;;;;;5101184;27;20039;-86
2022/07/19 12:41:59;;;;;;;4.22;1.38;;;36.60;61.80;;;;;;5100546;27;20042;-86
2022/07/19 12:44:24;;;;;;;4.35;1.48;;;36.70;59.90;;;;;;5117522;27;20047;-86
2022/07/19 12:46:50;;;;;;;;;;;36.70;61.50;;;;;;5118026;27;20135;-86
2022/07/19 12:49:16;;;;;;;3.88;1.20;;;36.70;59.00;;;;;;5135520;27;19919;-85
2022/07/19 12:51:43;;;;;;;;;;;36.70;60.00;;;;;;5100665;27;20398;-86